Time;durP1;ratioP1;P1;durP2;ratioP2;P2;SDS_P1;SDS_P2;PMS_P1;PMS_P2;Temp;Humidity;BMP_temperature;BMP_pressure;BME280_temperature;BME280_humidity;BME280_pressure;Samples;Min_cycle;Max_cycle;Signal;HPM_P1;HPM_P2
2021/06/17 00:01:17;;;;;;;7.03;5.10;;;435.90;2355.20;;;;;;5053737;28;20018;-68
2021/06/17 00:03:43;;;;;;;6.95;5.20;;;435.90;2355.20;;;;;;5053879;28;20043;-69
2021/06/17 00:06:08;;;;;;;9.05;4.80;;;436.00;2355.20;;;;;;5053590;28;20471;-68
2021/06/17 00:08:34;;;;;;;6.20;4.82;;;435.90;2355.20;;;;;;5054053;28;20025;-68
2021/06/17 00:11:00;;;;;;;8.35;4.95;;;435.90;2355.20;;;;;;5054289;28;20459;-69
2021/06/17 00:13:28;;;;;;;6.57;4.80;;;435.80;2355.20;;;;;;5053466;28;20391;-69
2021/06/17 00:15:59;;;;;;;6.38;4.70;;;435.90;2355.20;;;;;;5053323;28;20364;-69
2021/06/17 00:18:26;;;;;;;6.50;4.90;;;435.80;2355.20;;;;;;5053308;28;20100;-68
2021/06/17 00:20:52;;;;;;;6.00;4.97;;;435.80;2355.20;;;;;;5053107;28;20077;-69
2021/06/17 00:23:18;;;;;;;11.05;5.80;;;435.80;2355.20;;;;;;5053415;28;20499;-68
2021/06/17 00:25:44;;;;;;;10.02;6.22;;;435.80;2355.20;;;;;;5053840;28;20029;-68
2021/06/17 00:28:12;;;;;;;11.18;6.82;;;435.80;2355.20;;;;;;5053044;28;20017;-68
2021/06/17 00:30:38;;;;;;;16.30;8.65;;;435.80;2355.20;;;;;;5053396;28;20463;-68
2021/06/17 00:33:04;;;;;;;14.45;8.65;;;435.80;2355.20;;;;;;5053802;28;20025;-69
2021/06/17 00:35:30;;;;;;;18.55;8.68;;;435.80;2355.20;;;;;;5052615;28;20032;-68
2021/06/17 00:37:57;;;;;;;12.13;6.50;;;435.60;2355.20;;;;;;5053227;28;20021;-68
2021/06/17 00:40:24;;;;;;;13.73;6.90;;;435.50;2355.20;;;;;;5052963;28;20068;-68
2021/06/17 00:42:51;;;;;;;14.90;7.80;;;435.30;2355.20;;;;;;5054043;28;20072;-69
2021/06/17 00:45:27;;;;;;;11.88;7.50;;;435.30;2355.20;;;;;;5052687;28;20025;-68
2021/06/17 00:47:53;;;;;;;11.45;7.07;;;410.30;2355.20;;;;;;5052837;28;20021;-68
2021/06/17 00:50:20;;;;;;;10.82;7.85;;;410.30;2355.20;;;;;;5053470;28;20029;-68
2021/06/17 00:52:46;;;;;;;14.77;8.00;;;410.30;2355.20;;;;;;5052362;28;20033;-68
2021/06/17 00:55:13;;;;;;;12.27;8.20;;;410.30;2355.20;;;;;;5052391;28;20033;-68
2021/06/17 00:57:39;;;;;;;14.30;9.50;;;410.20;2355.20;;;;;;5052738;28;20476;-68
2021/06/17 01:00:11;;;;;;;14.63;11.18;;;410.20;2355.20;;;;;;5053295;28;20029;-68
2021/06/17 01:02:37;;;;;;;13.63;8.57;;;410.20;2355.20;;;;;;5052877;28;20475;-67
2021/06/17 01:05:07;;;;;;;13.57;9.23;;;410.10;2355.20;;;;;;5052418;28;20033;-69
2021/06/17 01:08:01;;;;;;;11.63;8.55;;;410.10;2355.20;;;;;;5052819;28;20035;-68
2021/06/17 01:10:52;;;;;;;12.80;8.77;;;410.00;2355.20;;;;;;5051327;28;20059;-67
2021/06/17 01:13:21;;;;;;;;;;;410.20;2355.20;;;;;;5050415;28;20111;-66
2021/06/17 01:16:00;;;;;;;11.02;7.85;;;410.00;2355.20;;;;;;5051993;28;19911;-68
2021/06/17 01:18:27;;;;;;;10.63;7.97;;;410.20;2355.20;;;;;;5049190;28;20045;-70
2021/06/17 01:20:55;;;;;;;10.45;8.23;;;410.00;2355.20;;;;;;5051968;28;20086;-69
2021/06/17 01:23:21;;;;;;;13.80;8.18;;;410.00;2355.20;;;;;;5052445;28;20035;-68
2021/06/17 01:26:14;;;;;;;12.38;8.00;;;409.90;2355.20;;;;;;5052312;28;20383;-75
2021/06/17 01:28:41;;;;;;;10.27;7.63;;;409.80;2355.20;;;;;;5050429;28;20388;-68
2021/06/17 01:31:12;;;;;;;11.07;8.05;;;409.90;2355.20;;;;;;5051962;28;20071;-69
2021/06/17 01:33:41;;;;;;;12.20;8.38;;;409.80;2355.20;;;;;;5051973;28;20052;-68
2021/06/17 01:36:15;;;;;;;12.60;8.30;;;409.90;2355.20;;;;;;5051866;28;20029;-75
2021/06/17 01:38:42;;;;;;;11.10;7.50;;;409.80;2355.20;;;;;;5051803;28;20021;-67
2021/06/17 01:41:10;;;;;;;10.02;7.45;;;409.80;2355.20;;;;;;5051925;28;20531;-69
2021/06/17 01:43:40;;;;;;;9.73;7.28;;;410.00;2355.20;;;;;;5049287;28;20471;-75
2021/06/17 01:46:06;;;;;;;9.05;7.18;;;409.60;2355.20;;;;;;5043291;28;20036;-70
2021/06/17 01:48:32;;;;;;;9.43;6.95;;;409.60;2355.20;;;;;;5052106;28;20017;-71
2021/06/17 01:50:58;;;;;;;9.20;6.13;;;409.60;2355.20;;;;;;5052151;28;20049;-67
2021/06/17 01:53:24;;;;;;;9.13;7.10;;;409.60;2355.20;;;;;;5051934;28;20025;-74
2021/06/17 01:58:21;;;;;;;9.37;6.90;;;384.80;2329.60;;;;;;5063179;28;20402;-70
2021/06/17 02:00:48;;;;;;;11.95;6.80;;;384.70;2329.60;;;;;;5056887;28;20391;-75
2021/06/17 02:03:16;;;;;;;11.50;7.20;;;384.70;2329.60;;;;;;5060837;28;20016;-69
2021/06/17 02:05:42;;;;;;;10.10;7.30;;;384.60;2329.60;;;;;;5062660;28;20388;-66
2021/06/17 02:08:09;;;;;;;9.05;6.93;;;384.50;2329.60;;;;;;5057117;28;20191;-69
2021/06/17 02:10:38;;;;;;;10.10;6.93;;;384.50;2329.60;;;;;;5064060;28;20028;-68
2021/06/17 02:13:05;;;;;;;14.93;11.20;;;384.60;2329.60;;;;;;5060343;28;20028;-68
2021/06/17 02:15:32;;;;;;;10.98;8.68;;;384.40;2329.60;;;;;;5063880;28;20025;-70
2021/06/17 02:18:00;;;;;;;14.05;11.65;;;384.10;2329.60;;;;;;5063075;28;20020;-68
2021/06/17 02:20:26;;;;;;;17.42;13.25;;;384.10;2329.60;;;;;;5060620;28;20053;-77
2021/06/17 02:22:56;;;;;;;17.25;12.32;;;384.10;2329.60;;;;;;5053759;28;20024;-72
2021/06/17 02:25:23;;;;;;;12.35;10.88;;;384.10;2329.60;;;;;;5059650;28;20032;-69
2021/06/17 02:27:57;;;;;;;18.42;14.05;;;384.20;2329.60;;;;;;5059473;28;20452;-67
2021/06/17 02:30:24;;;;;;;15.10;12.40;;;384.30;2329.60;;;;;;5051332;28;20033;-69
2021/06/17 02:32:52;;;;;;;15.50;12.93;;;384.10;2329.60;;;;;;5061061;28;20028;-70
2021/06/17 02:35:22;;;;;;;16.85;11.77;;;384.10;2329.60;;;;;;5062491;28;20104;-69
2021/06/17 02:37:52;;;;;;;13.60;10.23;;;384.10;2329.60;;;;;;5068165;28;20031;-69
2021/06/17 02:40:21;;;;;;;15.15;10.20;;;384.10;2329.60;;;;;;5063781;28;20509;-69
2021/06/17 02:42:47;;;;;;;13.15;10.15;;;384.10;2329.60;;;;;;5063449;28;20025;-69
2021/06/17 02:45:15;;;;;;;14.93;10.07;;;384.10;2329.60;;;;;;5062142;28;20029;-69
2021/06/17 02:47:41;;;;;;;13.95;11.02;;;384.10;2329.60;;;;;;5057684;28;20021;-69
2021/06/17 02:50:08;;;;;;;15.88;10.02;;;384.10;2329.60;;;;;;5063542;28;20032;-69
2021/06/17 02:52:34;;;;;;;13.40;9.63;;;384.10;2329.60;;;;;;5065123;28;20394;-68
2021/06/17 02:54:59;;;;;;;12.70;9.23;;;384.20;2329.60;;;;;;5062098;28;20017;-69
2021/06/17 02:57:36;;;;;;;14.40;9.10;;;384.20;2329.60;;;;;;5061281;28;20049;-69
2021/06/17 03:00:11;;;;;;;11.85;8.45;;;384.10;2329.60;;;;;;5067641;28;20020;-68
2021/06/17 03:03:07;;;;;;;12.60;7.90;;;384.30;2329.60;;;;;;5054074;28;20025;-69
2021/06/17 03:05:43;;;;;;;10.35;7.30;;;384.30;2329.60;;;;;;5058877;28;20493;-69
2021/06/17 03:08:24;;;;;;;13.30;7.95;;;384.40;2329.60;;;;;;5054765;28;20027;-68
2021/06/17 03:10:54;;;;;;;10.20;7.07;;;384.40;2329.60;;;;;;5060693;28;20100;-69
2021/06/17 03:13:23;;;;;;;9.40;7.33;;;384.50;2329.60;;;;;;5059374;28;20029;-67
2021/06/17 03:15:51;;;;;;;10.95;7.40;;;384.50;2329.60;;;;;;5063291;28;20450;-69
2021/06/17 03:18:18;;;;;;;10.60;6.70;;;384.60;2329.60;;;;;;5064027;28;20029;-70
2021/06/17 03:20:45;;;;;;;10.82;6.70;;;384.70;2329.60;;;;;;5058433;28;20165;-69
2021/06/17 03:23:15;;;;;;;10.73;6.70;;;384.80;2329.60;;;;;;5061429;28;20036;-68
2021/06/17 03:25:42;;;;;;;10.32;7.22;;;384.90;2329.60;;;;;;5055123;28;20036;-75
2021/06/17 03:28:12;;;;;;;11.05;8.00;;;409.60;2355.20;;;;;;5065462;28;20028;-76
2021/06/17 03:30:41;;;;;;;10.93;7.80;;;409.60;2355.20;;;;;;5061564;28;20024;-69
2021/06/17 03:33:07;;;;;;;9.15;6.93;;;409.60;2355.20;;;;;;5059287;28;20039;-67
2021/06/17 03:35:35;;;;;;;12.18;7.45;;;384.90;2329.60;;;;;;5057018;28;20107;-68
2021/06/17 03:38:02;;;;;;;9.65;7.57;;;409.60;2355.20;;;;;;5060411;28;20028;-68
2021/06/17 03:40:28;;;;;;;10.02;6.97;;;409.60;2355.20;;;;;;5064532;28;20083;-68
2021/06/17 03:42:55;;;;;;;9.93;7.57;;;409.60;2355.20;;;;;;5057984;28;20029;-68
2021/06/17 03:45:22;;;;;;;11.88;7.32;;;409.70;2355.20;;;;;;5060883;28;20044;-68
2021/06/17 03:47:50;;;;;;;10.80;7.57;;;409.70;2355.20;;;;;;5060185;28;20797;-68
2021/06/17 03:50:18;;;;;;;11.23;7.75;;;409.80;2355.20;;;;;;5060970;28;20087;-68
2021/06/17 03:52:46;;;;;;;10.77;7.80;;;409.90;2355.20;;;;;;5057757;28;20029;-71
2021/06/17 03:55:15;;;;;;;10.30;8.30;;;409.90;2355.20;;;;;;5060866;28;20108;-70
2021/06/17 03:57:42;;;;;;;10.48;7.97;;;410.00;2355.20;;;;;;5062812;28;20495;-69
2021/06/17 04:00:09;;;;;;;9.30;7.95;;;410.10;2355.20;;;;;;5057908;28;20475;-68
2021/06/17 04:02:36;;;;;;;10.05;7.60;;;410.20;2355.20;;;;;;5055366;28;20103;-72
2021/06/17 04:05:03;;;;;;;11.63;7.93;;;410.30;2355.20;;;;;;5057835;28;20052;-71
2021/06/17 04:07:29;;;;;;;9.52;7.25;;;410.40;2355.20;;;;;;5055426;28;20092;-69
2021/06/17 04:09:58;;;;;;;11.75;7.53;;;410.40;2355.20;;;;;;5060213;28;20025;-69
2021/06/17 04:12:27;;;;;;;9.93;7.55;;;410.50;2355.20;;;;;;5064185;28;20292;-70
2021/06/17 04:14:55;;;;;;;10.60;7.38;;;435.20;2355.20;;;;;;5060739;28;20021;-70
2021/06/17 04:17:28;;;;;;;9.60;7.25;;;435.30;2355.20;;;;;;5063558;28;20038;-76
2021/06/17 04:19:56;;;;;;;9.80;7.18;;;435.50;2355.20;;;;;;5055603;28;20017;-68
2021/06/17 04:22:23;;;;;;;10.27;6.90;;;435.60;2355.20;;;;;;5058312;28;20025;-68
2021/06/17 04:24:51;;;;;;;9.32;6.80;;;435.70;2355.20;;;;;;5060036;28;20498;-68
2021/06/17 04:27:20;;;;;;;8.60;6.57;;;435.90;2355.20;;;;;;5056687;28;20111;-68
2021/06/17 04:29:48;;;;;;;9.02;6.97;;;436.00;2355.20;;;;;;5061273;28;20070;-70
2021/06/17 04:32:14;;;;;;;9.90;7.00;;;436.10;2355.20;;;;;;5053778;28;20024;-71
2021/06/17 04:34:42;;;;;;;10.93;7.20;;;460.80;2380.80;;;;;;5057533;28;20025;-69
2021/06/17 04:37:11;;;;;;;8.32;7.18;;;460.90;2380.80;;;;;;5056403;28;20091;-67
2021/06/17 04:39:38;;;;;;;9.50;7.38;;;461.00;2380.80;;;;;;5059604;28;20021;-68
2021/06/17 04:42:05;;;;;;;10.27;7.07;;;461.20;2380.80;;;;;;5063232;28;20040;-69
2021/06/17 04:44:31;;;;;;;9.63;7.07;;;461.30;2380.80;;;;;;5054775;28;20020;-67
2021/06/17 04:46:58;;;;;;;11.95;7.47;;;461.40;2380.80;;;;;;5057198;28;20085;-70
2021/06/17 04:49:25;;;;;;;10.52;7.35;;;461.50;2380.80;;;;;;5061797;28;20021;-67
2021/06/17 04:51:54;;;;;;;8.90;7.15;;;461.60;2380.80;;;;;;5058788;28;20021;-71
2021/06/17 04:54:19;;;;;;;9.98;7.43;;;461.70;2380.80;;;;;;5058402;28;20032;-72
2021/06/17 04:56:46;;;;;;;11.35;7.70;;;486.40;2380.80;;;;;;5058510;28;20049;-75
2021/06/17 04:59:12;;;;;;;11.80;7.50;;;486.50;2380.80;;;;;;5061940;28;20145;-69
2021/06/17 05:01:40;;;;;;;10.73;7.38;;;486.60;2380.80;;;;;;5057814;28;20016;-72
2021/06/17 05:04:09;;;;;;;11.38;7.68;;;486.70;2380.80;;;;;;5060487;28;20479;-73
2021/06/17 05:06:37;;;;;;;9.88;7.20;;;486.90;2380.80;;;;;;5053712;28;20029;-68
2021/06/17 05:11:57;;;;;;;8.82;6.85;;;487.10;2380.80;;;;;;5064228;26;20045;-74
2021/06/17 05:14:23;;;;;;;10.68;7.20;;;487.20;2380.80;;;;;;5072790;28;20019;-68
2021/06/17 05:16:48;;;;;;;9.18;6.95;;;487.20;2380.80;;;;;;5071380;28;20103;-70
2021/06/17 05:19:15;;;;;;;11.90;7.47;;;487.00;2380.80;;;;;;5072477;28;20474;-68
2021/06/17 05:21:42;;;;;;;8.68;7.30;;;487.10;2380.80;;;;;;5069480;28;20060;-69
2021/06/17 05:24:08;;;;;;;10.27;7.55;;;487.30;2380.80;;;;;;5071991;28;20031;-68
2021/06/17 05:26:34;;;;;;;9.05;7.43;;;512.10;2380.80;;;;;;5072411;28;20111;-68
2021/06/17 05:29:00;;;;;;;8.18;7.35;;;512.30;2380.80;;;;;;5072350;28;20032;-68
2021/06/17 05:31:26;;;;;;;10.45;7.28;;;512.40;2380.80;;;;;;5063530;28;20024;-72
2021/06/17 05:33:52;;;;;;;12.65;8.02;;;512.10;2380.80;;;;;;5058600;28;20016;-72
2021/06/17 05:36:18;;;;;;;9.75;7.95;;;487.30;2380.80;;;;;;5062457;28;20090;-75
2021/06/17 05:38:44;;;;;;;8.52;7.32;;;487.20;2380.80;;;;;;5065511;28;20028;-66
2021/06/17 05:41:10;;;;;;;9.80;7.60;;;487.30;2380.80;;;;;;5058015;28;20070;-67
2021/06/17 05:43:36;;;;;;;9.77;7.75;;;512.40;2380.80;;;;;;5061618;28;20120;-69
2021/06/17 05:46:02;;;;;;;9.90;7.50;;;512.80;2380.80;;;;;;5062225;28;20099;-68
2021/06/17 05:48:29;;;;;;;9.25;7.05;;;512.80;2380.80;;;;;;5071572;28;20131;-69
2021/06/17 05:50:56;;;;;;;11.80;7.90;;;537.80;2406.40;;;;;;5070949;28;20422;-72
2021/06/17 05:53:22;;;;;;;9.07;7.43;;;538.10;2406.40;;;;;;5072361;28;20028;-73
2021/06/17 05:55:48;;;;;;;11.23;7.85;;;538.10;2406.40;;;;;;5071449;28;20070;-68
2021/06/17 05:58:14;;;;;;;8.82;7.28;;;538.50;2406.40;;;;;;5071737;28;20520;-70
2021/06/17 06:00:41;;;;;;;8.45;7.47;;;538.50;2406.40;;;;;;5071678;28;20024;-70
2021/06/17 06:03:07;;;;;;;8.80;7.07;;;538.50;2406.40;;;;;;5064595;28;20368;-71
2021/06/17 06:05:32;;;;;;;8.82;7.10;;;563.20;2432.00;;;;;;5072678;28;20024;-68
2021/06/17 06:08:00;;;;;;;10.32;7.15;;;538.40;2406.40;;;;;;5059856;28;20494;-70
2021/06/17 06:10:27;;;;;;;9.13;7.20;;;563.30;2432.00;;;;;;5072363;28;20041;-77
2021/06/17 06:12:53;;;;;;;9.02;7.38;;;538.40;2406.40;;;;;;5072150;28;20024;-79
2021/06/17 06:15:20;;;;;;;10.07;6.93;;;538.50;2406.40;;;;;;5070320;28;20021;-77
2021/06/17 06:17:46;;;;;;;8.95;7.70;;;563.30;2432.00;;;;;;5072074;28;20009;-73
2021/06/17 06:20:12;;;;;;;9.45;7.53;;;563.20;2432.00;;;;;;5072712;28;20036;-74
2021/06/17 06:22:37;;;;;;;8.88;7.20;;;563.30;2432.00;;;;;;5072203;28;20055;-69
2021/06/17 06:25:04;;;;;;;8.63;6.85;;;563.50;2432.00;;;;;;5072037;28;20040;-68
2021/06/17 06:27:31;;;;;;;8.63;6.78;;;563.80;2432.00;;;;;;5072280;28;20103;-67
2021/06/17 06:30:00;;;;;;;10.93;6.82;;;563.80;2432.00;;;;;;5073173;28;20100;-70
2021/06/17 06:32:26;;;;;;;8.07;6.32;;;564.00;2432.00;;;;;;5072526;28;20100;-72
2021/06/17 06:34:52;;;;;;;7.63;6.72;;;588.90;2432.00;;;;;;5071558;28;20027;-68
2021/06/17 06:37:17;;;;;;;9.00;7.25;;;589.30;2432.00;;;;;;5072142;28;20012;-70
2021/06/17 06:39:43;;;;;;;7.80;6.70;;;589.30;2432.00;;;;;;5064544;28;20060;-71
2021/06/17 06:42:09;;;;;;;9.00;7.18;;;589.70;2432.00;;;;;;5067475;28;20530;-69
2021/06/17 06:44:35;;;;;;;8.25;6.72;;;589.40;2432.00;;;;;;5060405;28;20116;-70
2021/06/17 06:47:00;;;;;;;8.93;7.15;;;589.60;2432.00;;;;;;5071932;28;20028;-69
2021/06/17 06:49:26;;;;;;;10.18;6.78;;;614.40;2432.00;;;;;;5071785;28;20025;-69
2021/06/17 06:51:52;;;;;;;10.35;6.90;;;614.60;2432.00;;;;;;5071822;28;20034;-69
2021/06/17 06:54:20;;;;;;;8.13;6.32;;;614.40;2432.00;;;;;;5071668;28;20074;-68
2021/06/17 06:56:49;;;;;;;7.03;5.88;;;614.80;2432.00;;;;;;5072015;28;20047;-69
2021/06/17 06:59:15;;;;;;;8.27;6.40;;;615.30;2432.00;;;;;;5071560;28;20024;-70
2021/06/17 07:01:41;;;;;;;8.93;6.20;;;640.60;2432.00;;;;;;5071729;28;20028;-69
2021/06/17 07:04:07;;;;;;;6.90;5.95;;;640.80;2432.00;;;;;;5071398;28;20042;-69
2021/06/17 07:06:33;;;;;;;7.03;5.53;;;640.70;2432.00;;;;;;5072025;28;20032;-70
2021/06/17 07:08:59;;;;;;;7.07;5.72;;;640.80;2432.00;;;;;;5072019;28;20024;-69
2021/06/17 07:11:25;;;;;;;7.65;5.90;;;665.90;2432.00;;;;;;5074798;28;20055;-69
2021/06/17 07:13:50;;;;;;;7.57;5.55;;;665.80;2432.00;;;;;;5075466;28;20039;-69
2021/06/17 07:16:16;;;;;;;10.25;6.22;;;665.70;2432.00;;;;;;5075130;28;20360;-70
2021/06/17 07:18:42;;;;;;;7.55;5.82;;;640.80;2432.00;;;;;;5075227;28;20067;-69
2021/06/17 07:21:08;;;;;;;8.20;5.68;;;665.90;2432.00;;;;;;5075088;28;20052;-69
2021/06/17 07:23:34;;;;;;;6.72;5.10;;;665.90;2432.00;;;;;;5075193;28;20085;-71
2021/06/17 07:26:01;;;;;;;7.65;5.47;;;666.00;2432.00;;;;;;5075153;28;20096;-70
2021/06/17 07:28:27;;;;;;;9.43;5.68;;;666.50;2432.00;;;;;;5074967;28;20032;-69
2021/06/17 07:30:53;;;;;;;10.45;5.53;;;691.70;2432.00;;;;;;5075241;28;20033;-69
2021/06/17 07:33:19;;;;;;;8.00;5.30;;;691.70;2432.00;;;;;;5075040;28;20031;-70
2021/06/17 07:35:44;;;;;;;8.48;5.45;;;716.90;2432.00;;;;;;5074789;28;20437;-69
2021/06/17 07:38:10;;;;;;;10.02;5.60;;;716.90;2432.00;;;;;;5075043;28;20020;-69
2021/06/17 07:40:40;;;;;;;6.82;5.40;;;691.90;2432.00;;;;;;5074829;28;20023;-70
2021/06/17 07:43:06;;;;;;;8.43;5.68;;;692.00;2432.00;;;;;;5074786;28;20451;-69
2021/06/17 07:45:32;;;;;;;8.18;5.43;;;691.70;2432.00;;;;;;5074903;28;20403;-70
2021/06/17 07:47:58;;;;;;;7.43;5.30;;;691.90;2432.00;;;;;;5069662;28;20050;-70
2021/06/17 07:50:24;;;;;;;7.85;5.35;;;717.20;2432.00;;;;;;5060674;28;20024;-70
2021/06/17 07:52:50;;;;;;;8.77;5.05;;;716.80;2432.00;;;;;;5065047;28;20029;-70
2021/06/17 07:55:16;;;;;;;9.05;4.93;;;716.80;2432.00;;;;;;5059628;28;20062;-69
2021/06/17 07:57:42;;;;;;;7.15;5.20;;;717.30;2432.00;;;;;;5065936;28;20474;-71
2021/06/17 08:00:08;;;;;;;7.25;4.72;;;717.40;2432.00;;;;;;5064374;28;20032;-70
2021/06/17 08:02:34;;;;;;;6.82;4.60;;;742.50;2432.00;;;;;;5071868;28;20024;-70
2021/06/17 08:05:00;;;;;;;7.05;4.80;;;742.90;2432.00;;;;;;5056837;28;20031;-71
2021/06/17 08:07:25;;;;;;;8.38;4.70;;;743.10;2432.00;;;;;;5067021;28;20509;-70
2021/06/17 08:09:51;;;;;;;5.85;4.55;;;768.20;2432.00;;;;;;5064422;28;20036;-70
2021/06/17 08:12:17;;;;;;;6.82;4.38;;;768.40;2432.00;;;;;;5063554;28;20040;-70
2021/06/17 08:14:43;;;;;;;6.65;4.57;;;768.20;2432.00;;;;;;5063751;28;20012;-71
2021/06/17 08:17:09;;;;;;;6.38;4.40;;;743.30;2432.00;;;;;;5064579;28;20468;-69
2021/06/17 08:19:35;;;;;;;6.28;3.95;;;768.60;2406.40;;;;;;5059803;28;20031;-70
2021/06/17 08:22:04;;;;;;;7.43;4.30;;;768.20;2406.40;;;;;;5073647;28;20086;-71
2021/06/17 08:24:31;;;;;;;6.65;4.40;;;768.10;2380.80;;;;;;5073730;28;20497;-70
2021/06/17 08:26:57;;;;;;;5.75;3.88;;;768.10;2406.40;;;;;;5071694;28;20074;-70
2021/06/17 08:29:23;;;;;;;5.97;3.88;;;768.60;2329.60;;;;;;5065157;28;20033;-68
2021/06/17 08:31:49;;;;;;;7.03;4.30;;;768.70;2304.00;;;;;;5066334;28;20028;-71
2021/06/17 08:34:15;;;;;;;9.65;4.38;;;793.70;2278.40;;;;;;5064086;28;20056;-70
2021/06/17 08:36:41;;;;;;;7.07;4.22;;;793.70;2227.20;;;;;;5063186;28;20048;-70
2021/06/17 08:39:07;;;;;;;10.02;4.40;;;768.60;2252.80;;;;;;5062955;28;20023;-70
2021/06/17 08:41:33;;;;;;;5.40;3.97;;;768.60;2252.80;;;;;;5065267;28;20029;-70
2021/06/17 08:43:59;;;;;;;6.93;4.30;;;793.90;2252.80;;;;;;5060784;28;20023;-69
2021/06/17 08:46:25;;;;;;;8.85;4.40;;;794.50;2176.00;;;;;;5063508;28;20025;-69
2021/06/17 08:48:51;;;;;;;6.97;4.45;;;;;;;;;;5063947;28;20407;-69
2021/06/17 08:51:18;;;;;;;6.20;4.25;;;819.60;2176.00;;;;;;5063289;28;20059;-70
2021/06/17 08:53:45;;;;;;;5.78;3.95;;;845.00;2073.60;;;;;;5063281;28;20060;-71
2021/06/17 08:56:11;;;;;;;6.07;4.25;;;844.90;2099.20;;;;;;5060710;28;20020;-70
2021/06/17 08:58:36;;;;;;;8.57;4.30;;;845.20;2073.60;;;;;;5063855;28;20041;-69
2021/06/17 09:01:11;;;;;;;6.60;4.28;;;845.50;2022.40;;;;;;5060890;28;20024;-68
2021/06/17 09:03:44;;;;;;;6.65;4.20;;;845.40;2048.00;;;;;;5073096;28;20479;-67
2021/06/17 09:06:10;;;;;;;7.57;4.15;;;845.40;1996.80;;;;;;5073013;28;20047;-67
2021/06/17 09:08:37;;;;;;;5.63;4.07;;;845.20;2022.40;;;;;;5072937;28;20078;-76
2021/06/17 09:11:24;;;;;;;5.70;3.95;;;845.30;1996.80;;;;;;5072259;28;20093;-69
2021/06/17 09:13:51;;;;;;;6.97;3.90;;;845.30;1996.80;;;;;;5072057;28;20503;-70
2021/06/17 09:16:27;;;;;;;5.13;3.90;;;845.30;1971.20;;;;;;5072605;28;20047;-73
2021/06/17 09:18:53;;;;;;;6.55;3.88;;;844.90;1971.20;;;;;;5072715;28;20422;-71
2021/06/17 09:21:19;;;;;;;5.60;4.00;;;844.90;1996.80;;;;;;5072838;28;20381;-69
2021/06/17 09:23:47;;;;;;;6.97;4.15;;;845.00;1996.80;;;;;;5070290;28;20028;-68
2021/06/17 09:26:20;;;;;;;5.88;4.20;;;845.20;1945.60;;;;;;5072245;28;20029;-68
2021/06/17 09:29:00;;;;;;;6.15;3.80;;;820.10;1971.20;;;;;;5069262;28;20029;-73
2021/06/17 09:31:29;;;;;;;5.32;3.90;;;820.10;1996.80;;;;;;5060159;28;20021;-78
2021/06/17 09:33:57;;;;;;;5.70;3.83;;;820.10;1971.20;;;;;;5062252;28;20115;-74
2021/06/17 09:36:34;;;;;;;6.00;3.53;;;844.80;2022.40;;;;;;5063767;28;20052;-73
2021/06/17 09:39:09;;;;;;;5.22;3.88;;;845.00;1971.20;;;;;;5046393;28;20410;-70
2021/06/17 09:41:41;;;;;;;5.55;4.20;;;845.20;1945.60;;;;;;5060520;28;20144;-70
2021/06/17 09:44:29;;;;;;;6.68;3.80;;;845.20;1945.60;;;;;;5071850;28;20052;-70
2021/06/17 09:47:18;;;;;;;5.80;3.80;;;845.10;1945.60;;;;;;5059007;28;20021;-71
2021/06/17 09:49:46;;;;;;;5.15;3.80;;;845.10;1920.00;;;;;;5061167;28;20028;-71
2021/06/17 09:52:13;;;;;;;6.20;3.88;;;844.90;1920.00;;;;;;5070603;28;20059;-70
2021/06/17 09:54:40;;;;;;;6.05;4.20;;;844.90;1945.60;;;;;;5064415;28;20024;-70
2021/06/17 09:57:10;;;;;;;4.68;3.80;;;820.10;1945.60;;;;;;5068008;28;20024;-69
2021/06/17 09:59:46;;;;;;;;;;;844.80;1971.20;;;;;;5047689;28;20089;-70
2021/06/17 10:02:18;;;;;;;5.65;4.00;;;844.80;1945.60;;;;;;5070916;28;19905;-69
2021/06/17 10:04:45;;;;;;;6.72;4.30;;;844.90;1920.00;;;;;;5059632;28;20031;-70
2021/06/17 10:07:10;;;;;;;6.35;4.00;;;819.70;1945.60;;;;;;5063895;28;20035;-69
2021/06/17 10:09:36;;;;;;;8.73;4.57;;;820.00;1971.20;;;;;;5060200;28;20024;-69
2021/06/17 10:12:04;;;;;;;6.25;4.40;;;820.10;1945.60;;;;;;5055585;28;20111;-68
2021/06/17 10:14:30;;;;;;;7.18;4.45;;;819.70;1945.60;;;;;;5064614;28;20024;-68
2021/06/17 10:16:58;;;;;;;8.30;4.10;;;819.60;1996.80;;;;;;5059803;28;20052;-71
2021/06/17 10:19:25;;;;;;;6.05;4.10;;;819.80;1971.20;;;;;;5056580;28;20025;-69
2021/06/17 10:21:51;;;;;;;6.35;4.22;;;819.90;1971.20;;;;;;5067336;28;20025;-68
2021/06/17 10:24:21;;;;;;;6.80;4.30;;;819.60;1945.60;;;;;;5062596;28;20028;-70
2021/06/17 10:26:59;;;;;;;6.90;4.30;;;819.40;1920.00;;;;;;5063939;28;20441;-69
2021/06/17 10:29:27;;;;;;;7.43;4.20;;;819.80;1971.20;;;;;;5058509;28;20029;-72
2021/06/17 10:31:57;;;;;;;6.72;4.03;;;820.10;1945.60;;;;;;5055949;28;20440;-69
2021/06/17 10:34:31;;;;;;;4.85;4.10;;;844.80;1945.60;;;;;;5063018;28;20016;-70
2021/06/17 10:37:13;;;;;;;6.15;4.35;;;844.90;1920.00;;;;;;5058899;28;20051;-73
2021/06/17 10:39:45;;;;;;;6.60;4.50;;;820.10;1868.80;;;;;;5053152;28;20056;-70
2021/06/17 10:42:36;;;;;;;6.05;4.60;;;819.80;1894.40;;;;;;5054314;28;20090;-70
2021/06/17 10:45:27;;;;;;;7.30;4.30;;;820.00;1894.40;;;;;;5061613;28;20041;-71
2021/06/17 10:47:57;;;;;;;7.15;4.60;;;820.00;1894.40;;;;;;5068783;28;20032;-69
2021/06/17 10:50:44;;;;;;;6.95;4.43;;;820.10;1894.40;;;;;;5060373;28;20437;-68
2021/06/17 10:53:17;;;;;;;7.53;4.55;;;844.90;1920.00;;;;;;5058265;28;20395;-69
2021/06/17 10:55:59;;;;;;;6.43;4.18;;;844.90;1894.40;;;;;;5064676;28;20027;-71
2021/06/17 10:58:45;;;;;;;5.75;4.30;;;844.90;1920.00;;;;;;5058071;28;20032;-71
2021/06/17 11:01:29;;;;;;;9.93;4.88;;;845.20;1894.40;;;;;;5064088;28;20029;-70
2021/06/17 11:04:08;;;;;;;5.90;4.45;;;845.10;1868.80;;;;;;5061204;28;20024;-74
2021/06/17 11:06:50;;;;;;;6.60;4.28;;;819.90;1868.80;;;;;;5059401;28;20567;-77
2021/06/17 11:09:38;;;;;;;5.55;4.40;;;820.10;1843.20;;;;;;5062305;28;20032;-70
2021/06/17 11:12:19;;;;;;;5.97;4.47;;;820.10;1817.60;;;;;;5062151;28;20112;-78
2021/06/17 11:14:48;;;;;;;6.32;4.45;;;820.00;1817.60;;;;;;5062458;28;20382;-74
2021/06/17 11:17:37;;;;;;;6.63;4.70;;;820.10;1817.60;;;;;;5070803;28;20024;-71
2021/06/17 11:20:16;;;;;;;5.60;4.60;;;820.00;1868.80;;;;;;5069665;28;20013;-71
2021/06/17 11:22:48;;;;;;;5.75;4.40;;;820.10;1868.80;;;;;;5066979;28;20057;-70
2021/06/17 11:25:16;;;;;;;5.70;4.57;;;844.90;1868.80;;;;;;5041462;28;20674;-71
2021/06/17 11:28:11;;;;;;;5.07;4.45;;;845.20;1868.80;;;;;;5064187;28;20020;-75
2021/06/17 11:30:41;;;;;;;6.88;4.30;;;845.40;1817.60;;;;;;5043411;28;20033;-70
2021/06/17 11:33:19;;;;;;;7.28;4.25;;;845.40;1817.60;;;;;;5056267;28;20120;-74
2021/06/17 11:35:53;;;;;;;7.13;4.68;;;845.20;1792.00;;;;;;5064616;28;20111;-71
2021/06/17 11:38:24;;;;;;;8.32;4.95;;;845.00;1792.00;;;;;;5063768;28;20360;-74
2021/06/17 11:40:49;;;;;;;6.45;4.63;;;844.90;1792.00;;;;;;5065226;28;20024;-70
2021/06/17 11:43:28;;;;;;;7.07;4.60;;;845.30;1817.60;;;;;;5063232;28;20013;-78
2021/06/17 11:45:55;;;;;;;6.80;4.80;;;845.60;1766.40;;;;;;5060430;28;20029;-78
2021/06/17 11:48:21;;;;;;;4.93;4.22;;;870.40;1766.40;;;;;;5055209;28;20029;-76
2021/06/17 11:50:49;;;;;;;5.72;4.60;;;845.70;1792.00;;;;;;5060932;28;20428;-79
2021/06/17 11:53:19;;;;;;;7.30;4.43;;;845.60;1792.00;;;;;;5057445;28;20040;-75
2021/06/17 11:55:50;;;;;;;6.82;5.03;;;845.50;1817.60;;;;;;5062640;28;20116;-74
2021/06/17 11:58:15;;;;;;;5.88;4.60;;;845.60;1817.60;;;;;;5065849;28;20461;-73
2021/06/17 12:00:41;;;;;;;7.13;4.60;;;845.60;1792.00;;;;;;5067214;28;20118;-78
2021/06/17 12:03:20;;;;;;;6.50;4.45;;;845.60;1792.00;;;;;;5069962;28;20029;-81
2021/06/17 12:05:47;;;;;;;6.82;4.50;;;845.70;1817.60;;;;;;5073765;28;20012;-80
2021/06/17 12:08:12;;;;;;;5.22;4.28;;;870.50;1792.00;;;;;;5073496;28;20035;-80
2021/06/17 12:10:41;;;;;;;5.13;4.20;;;870.60;1766.40;;;;;;5073814;28;20036;-76
2021/06/17 12:13:10;;;;;;;5.45;4.57;;;870.60;1792.00;;;;;;5069926;28;20037;-81
2021/06/17 12:15:40;;;;;;;6.20;4.72;;;870.70;1740.80;;;;;;5062925;28;21533;-81
2021/06/17 12:18:13;;;;;;;6.82;4.63;;;870.90;1740.80;;;;;;5061490;28;20110;-80
2021/06/17 12:20:47;;;;;;;6.10;4.40;;;870.80;1740.80;;;;;;5066780;28;20024;-80
2021/06/17 12:23:22;;;;;;;6.47;4.50;;;870.70;1715.20;;;;;;5074337;28;20025;-81
2021/06/17 12:25:59;;;;;;;5.93;4.70;;;;;;;;;;5069980;28;20522;-79
2021/06/17 12:28:26;;;;;;;6.10;4.15;;;;;;;;;;5065044;28;20098;-74
2021/06/17 12:30:52;;;;;;;6.25;4.35;;;;;;;;;;5056881;28;20021;-73